Impacts METAR Board
IDs:

KFLL - Ft Lauderdale-Hollyw, FL, US

Updated at: 1000 UTC 18 Jan 2022
Potential Impact None Slight Moderate High
Time 17/22Z 17/23Z 18/00Z 18/01Z 18/02Z 18/03Z 18/04Z 18/05Z 18/06Z 18/07Z 18/08Z 18/09Z 18/10Z
Temp70 68 65 63 61 59 58 57 56 55 55 54 53
Dewpt49 49 50 51 51 52 51 50 50 51 50 51 51
Altim29.96 29.97 30.01 30.03 30.06 30.08 30.09 30.09 30.08 30.08 30.09 30.09 30.10
VIS10 10 10 10 10 10 10 10 10 10 10 10 10
CIG-- -- -- -- -- -- -- -- -- -- -- -- --
CoverFEWFEWFEWCLRCLRCLRCLRCLRCLRCLRCLRCLRCLR
FltCatVFRVFRVFRVFRVFRVFRVFRVFRVFRVFRVFRVFRVFR
WX--------------------------
WDir2902903003003103103103003103003103200
WSpd9 10 7 7 7 6 5 3 3 3 3 3 0
WGst15 -- -- -- -- -- -- -- -- -- -- -- --
Raw hourly METARs
KFLL 172153Z 29009G15KT 10SM FEW050 FEW250 21/09 A2996 RMK AO2 SLP143 T02110094 PNO $
KFLL 172253Z 29010KT 10SM FEW050 FEW250 20/09 A2997 RMK AO2 SLP149 T02000094 PNO $
KFLL 172353Z 30007KT 10SM FEW049 18/10 A3001 RMK AO2 SLP160 6//// T01830100 10228 20183 53022 PNO $
KFLL 180053Z 30007KT 10SM CLR 17/11 A3003 RMK AO2 SLP168 T01720106 PNO $
KFLL 180153Z 31007KT 10SM CLR 16/11 A3006 RMK AO2 SLP178 T01610106 PNO $
KFLL 180253Z 31006KT 10SM CLR 15/11 A3008 RMK AO2 SLP185 6//// T01500111 51024 PNO $
KFLL 180353Z 31005KT 10SM CLR 14/11 A3009 RMK AO2 SLP189 T01440106 PNO $
KFLL 180453Z 30003KT 10SM CLR 14/10 A3009 RMK AO2 SLP187 T01390100 402280139 PNO $
KFLL 180553Z 31003KT 10SM CLR 13/10 A3008 RMK AO2 SLP185 6//// T01330100 10183 20133 50000 PNO $
KFLL 180653Z 30003KT 10SM CLR 13/11 A3008 RMK AO2 SLP185 T01280106 PNO $
KFLL 180753Z 31003KT 10SM CLR 13/10 A3009 RMK AO2 SLP187 T01280100 PNO $
KFLL 180853Z 32003KT 10SM CLR 12/11 A3009 RMK AO2 SLP189 6//// T01220106 53004 PNO $
KFLL 180953Z 00000KT 10SM CLR 12/11 A3010 RMK AO2 SLP194 T01170106 PNO $



Page loaded:  10:12 UTC  |   02:12 AM Pacific  |   03:12 AM Mountain  |   04:12 AM Central  |   05:12 AM Eastern

 

ADVISORIES

FORECASTS

FORECASTS

OBSERVATIONS

USER TOOLS

ABOUT US